Sacred Heart, Minnesota
Current Conditions -  °F | °C
As of 1:52 PM on Monday 22 Dec 2014 (Local Time) from KGDB Reporting Station
Light Rain Light Rain  
Wind Chill: 30°   Ceiling: 500
Heat Index: 38°   Visibility: 4mi
Dew Point: 37°   Wind: 15mph
Humidity: 97%   Direction: 110°ESE
Pressure: 29.48"   Gusts: 20mph
Location:  44.79°N, 95.35°W
Report Text: KGDB 221952Z AUTO 11013G17KT 4SM -RA OVC005 04/03 A2948 RMK AO2 P0001 T00350030
Loading
Personal Weather Stations






























Interactive Weather Map New forecast layout! Learn more

10-Day Weather Forecast

Advertisements
Track Severe Weather on mobile